createdAt,value
2019-03-20T08:33:35.086Z,102529.37
2019-03-20T08:34:42.283Z,102526.55
2019-03-20T08:35:49.733Z,102537.69
2019-03-20T08:36:56.378Z,102535.97
2019-03-20T08:38:02.050Z,102538.30
2019-03-20T08:39:08.500Z,102537.31
2019-03-20T08:40:19.773Z,102542.33
2019-03-20T08:41:26.947Z,102550.52
2019-03-20T08:42:33.162Z,102545.03
2019-03-20T08:43:39.617Z,102546.61
2019-03-20T08:44:46.093Z,102543.66
2019-03-20T08:45:52.170Z,102545.87
2019-03-20T08:46:58.027Z,102546.62
2019-03-20T08:48:04.619Z,102543.81
2019-03-20T08:49:10.506Z,102554.07
2019-03-20T08:50:21.881Z,102548.56
2019-03-20T08:51:27.908Z,102553.34
2019-03-20T08:52:34.042Z,102543.19
2019-03-20T08:53:40.278Z,102547.11
2019-03-20T08:54:46.271Z,102558.36
2019-03-20T08:55:53.590Z,102553.95
2019-03-20T08:56:59.840Z,102553.72
2019-03-20T08:58:06.276Z,102548.83
2019-03-20T08:59:12.099Z,102546.38
2019-03-20T09:00:25.176Z,102562.16
2019-03-20T09:01:31.078Z,102556.17
2019-03-20T09:02:36.748Z,102551.53
2019-03-20T09:03:43.621Z,102558.13
2019-03-20T09:04:49.451Z,102553.85
2019-03-20T09:05:55.859Z,102555.69
2019-03-20T09:07:02.302Z,102558.75
2019-03-20T09:08:08.111Z,102553.00
2019-03-20T09:09:15.432Z,102547.37
2019-03-20T09:10:27.141Z,102554.95
2019-03-20T09:11:33.079Z,102553.54
2019-03-20T09:12:38.780Z,102547.84
2019-03-20T09:13:45.056Z,102547.84
2019-03-20T09:14:52.688Z,102547.70
2019-03-20T09:15:59.215Z,102546.97
2019-03-20T09:17:06.769Z,102547.97
2019-03-20T09:18:14.242Z,102545.77
2019-03-20T09:19:20.072Z,102549.55
2019-03-20T09:20:26.172Z,102547.38
2019-03-20T09:21:33.279Z,102548.11
2019-03-20T09:22:39.033Z,102552.86
2019-03-20T09:23:46.319Z,102549.41
2019-03-20T09:24:52.359Z,102554.81
2019-03-20T09:25:58.118Z,102545.50
2019-03-20T09:27:03.810Z,102544.52
2019-03-20T09:28:10.023Z,102545.11
2019-03-20T09:29:18.752Z,102540.21
2019-03-20T09:30:30.432Z,102535.05
2019-03-20T09:31:36.043Z,102533.44
2019-03-20T09:32:41.653Z,102534.03
2019-03-20T09:33:49.076Z,102534.73
2019-03-20T09:34:55.820Z,102529.27
2019-03-20T09:36:02.646Z,102527.71
2019-03-20T09:37:08.332Z,102530.67
2019-03-20T09:38:15.432Z,102534.24
2019-03-20T09:39:21.671Z,102529.77
2019-03-20T09:40:29.082Z,102526.12
2019-03-20T09:41:34.733Z,102527.95
2019-03-20T09:42:41.020Z,102522.30
2019-03-20T09:43:46.970Z,102524.37
2019-03-20T09:44:52.893Z,102524.03
2019-03-20T09:45:59.183Z,102529.01
2019-03-20T09:47:04.983Z,102533.84
2019-03-20T09:48:11.763Z,102541.86
2019-03-20T09:49:20.403Z,102535.86
2019-03-20T09:50:30.233Z,102535.55
2019-03-20T09:51:36.490Z,102537.63
2019-03-20T09:52:42.543Z,102542.39
2019-03-20T09:53:48.083Z,102542.21
2019-03-20T09:54:54.163Z,102550.52
2019-03-20T09:56:00.164Z,102541.55
2019-03-20T09:57:06.124Z,102535.37
2019-03-20T09:58:12.489Z,102537.39
2019-03-20T09:59:18.154Z,102533.87
2019-03-20T10:00:26.670Z,102530.88
2019-03-20T10:01:33.123Z,102529.93
2019-03-20T10:02:39.004Z,102526.61
2019-03-20T10:03:44.683Z,102530.59
2019-03-20T10:04:50.710Z,102530.09
2019-03-20T10:05:56.351Z,102532.17
2019-03-20T10:07:02.200Z,102521.55
2019-03-20T10:08:07.814Z,102520.56
2019-03-20T10:09:13.471Z,102526.28
2019-03-20T10:10:26.980Z,102521.94
2019-03-20T10:11:32.971Z,102527.45
2019-03-20T10:12:39.174Z,102524.93
2019-03-20T10:13:45.141Z,102523.84
2019-03-20T10:14:51.021Z,102519.73
2019-03-20T10:15:56.901Z,102529.79
2019-03-20T10:17:04.254Z,102520.98
2019-03-20T10:18:09.931Z,102533.72
2019-03-20T10:19:16.025Z,102521.00
2019-03-20T10:20:22.901Z,102521.48
2019-03-20T10:21:28.610Z,102515.50
2019-03-20T10:22:35.181Z,102524.98
2019-03-20T10:23:41.712Z,102517.25
2019-03-20T10:24:47.621Z,102518.00
2019-03-20T10:25:53.883Z,102522.91
2019-03-20T10:27:00.324Z,102518.49
2019-03-20T10:28:06.772Z,102524.86
2019-03-20T10:29:13.355Z,102519.47
2019-03-20T10:30:23.020Z,102524.61
2019-03-20T10:31:30.981Z,102526.94
2019-03-20T10:32:37.004Z,102525.47
2019-03-20T10:33:42.752Z,102530.11
2019-03-20T10:34:48.406Z,102517.38
2019-03-20T10:35:55.790Z,102533.29
2019-03-20T10:37:01.573Z,102530.96
2019-03-20T10:38:07.419Z,102526.75
2019-03-20T10:39:13.250Z,102524.02
2019-03-20T10:40:28.126Z,102530.61
2019-03-20T10:41:33.851Z,102521.62
2019-03-20T10:42:41.752Z,102520.78
2019-03-20T10:43:47.482Z,102521.77
2019-03-20T10:44:53.086Z,102522.23
2019-03-20T10:45:58.863Z,102526.62
2019-03-20T10:47:04.753Z,102525.27
2019-03-20T10:48:10.464Z,102524.42
2019-03-20T10:49:16.497Z,102522.68
2019-03-20T10:50:30.304Z,102528.31
2019-03-20T10:51:36.244Z,102522.09
2019-03-20T10:52:43.509Z,102526.13
2019-03-20T10:53:50.152Z,102521.44
2019-03-20T10:54:57.343Z,102522.46
2019-03-20T10:56:03.043Z,102514.86
2019-03-20T10:57:09.630Z,102525.95
2019-03-20T10:58:15.414Z,102519.56
2019-03-20T10:59:21.390Z,102525.52
2019-03-20T11:00:29.142Z,102524.87
2019-03-20T11:01:42.483Z,102526.97
2019-03-20T11:02:42.310Z,102524.41
2019-03-20T11:03:49.663Z,102526.94
2019-03-20T11:04:55.495Z,102524.64
2019-03-20T11:06:02.983Z,102521.67
2019-03-20T11:07:09.049Z,102520.36
2019-03-20T11:08:14.974Z,102517.86
2019-03-20T11:09:20.654Z,102507.10
2019-03-20T11:10:31.111Z,102511.05
2019-03-20T11:11:37.031Z,102516.21
2019-03-20T11:12:44.939Z,102510.39
2019-03-20T11:13:50.650Z,102511.11
2019-03-20T11:14:56.226Z,102509.47
2019-03-20T11:16:03.444Z,102518.50
2019-03-20T11:17:09.231Z,102511.09
2019-03-20T11:18:15.054Z,102515.70
2019-03-20T11:19:20.823Z,102503.23
2019-03-20T11:20:27.271Z,102501.83
2019-03-20T11:21:33.401Z,102498.44
2019-03-20T11:22:38.944Z,102497.48
2019-03-20T11:23:47.585Z,102498.20
2019-03-20T11:24:53.873Z,102495.06
2019-03-20T11:26:00.111Z,102494.11
2019-03-20T11:27:06.746Z,102492.30
2019-03-20T11:28:13.415Z,102506.66
2019-03-20T11:29:21.701Z,102498.47
2019-03-20T11:30:29.995Z,102493.23
2019-03-20T11:31:37.644Z,102492.22
2019-03-20T11:32:44.015Z,102494.23
2019-03-20T11:33:50.452Z,102497.43
2019-03-20T11:34:56.274Z,102486.84
2019-03-20T11:36:02.622Z,102496.14
2019-03-20T11:37:08.363Z,102494.66
2019-03-20T11:38:14.174Z,102495.58
2019-03-20T11:39:29.256Z,102491.15
2019-03-20T11:40:39.422Z,102488.55
2019-03-20T11:41:46.887Z,102489.60
2019-03-20T11:42:52.587Z,102484.17
2019-03-20T11:43:58.195Z,102490.45
2019-03-20T11:45:04.083Z,102488.52
2019-03-20T11:46:09.742Z,102475.29
2019-03-20T11:47:15.474Z,102486.28
2019-03-20T11:48:21.192Z,102475.66
2019-03-20T11:49:26.936Z,102477.20
2019-03-20T11:50:38.596Z,102479.44
2019-03-20T11:51:44.753Z,102470.33
2019-03-20T11:52:50.817Z,102469.89
2019-03-20T11:53:56.572Z,102469.50
2019-03-20T11:55:02.126Z,102471.25
2019-03-20T11:56:09.745Z,102466.31
2019-03-20T11:57:15.856Z,102468.91
2019-03-20T11:58:22.905Z,102465.16
2019-03-20T11:59:28.565Z,102461.28
2019-03-20T12:00:34.390Z,102463.69
2019-03-20T12:01:43.202Z,102463.48
2019-03-20T12:02:51.221Z,102465.17
2019-03-20T12:03:57.535Z,102462.62
2019-03-20T12:05:04.227Z,102459.77
2019-03-20T12:06:10.246Z,102462.62
2019-03-20T12:07:16.133Z,102458.69
2019-03-20T12:08:23.456Z,102463.98
2019-03-20T12:09:40.382Z,102463.62
2019-03-20T12:10:36.906Z,102467.00
2019-03-20T12:11:46.215Z,102463.09
2019-03-20T12:12:50.767Z,102459.89
2019-03-20T12:13:56.556Z,102458.89
2019-03-20T12:15:02.215Z,102463.20
2019-03-20T12:16:08.036Z,102452.23
2019-03-20T12:17:13.936Z,102454.61
2019-03-20T12:18:21.176Z,102451.38
2019-03-20T12:19:28.375Z,102462.56
2019-03-20T12:20:34.121Z,102444.38
2019-03-20T12:21:40.011Z,102458.88
2019-03-20T12:22:46.546Z,102458.58
2019-03-20T12:23:53.003Z,102451.08
2019-03-20T12:25:00.726Z,102453.74
2019-03-20T12:26:06.545Z,102443.84
2019-03-20T12:27:15.405Z,102438.92
2019-03-20T12:28:19.923Z,102440.42
2019-03-20T12:29:27.546Z,102439.30
2019-03-20T12:30:38.044Z,102433.15
2019-03-20T12:31:44.306Z,102435.27
2019-03-20T12:32:50.887Z,102434.73
2019-03-20T12:33:56.736Z,102428.97
2019-03-20T12:35:04.196Z,102428.39
2019-03-20T12:36:09.860Z,102427.05
2019-03-20T12:37:15.686Z,102436.52
2019-03-20T12:38:22.803Z,102438.98
2019-03-20T12:39:28.516Z,102428.66
2019-03-20T12:40:34.146Z,102428.29
2019-03-20T12:41:39.807Z,102428.29
2019-03-20T12:42:45.754Z,102431.52
2019-03-20T12:43:51.548Z,102425.67
2019-03-20T12:44:57.263Z,102424.66
2019-03-20T12:46:02.957Z,102420.34
2019-03-20T12:47:08.895Z,102423.14
2019-03-20T12:48:19.333Z,102426.66
2019-03-20T12:49:25.168Z,102427.73
2019-03-20T12:50:32.386Z,102424.84
2019-03-20T12:51:38.317Z,102421.89
2019-03-20T12:52:44.245Z,102424.45
2019-03-20T12:53:50.010Z,102422.71
2019-03-20T12:54:55.724Z,102427.74
2019-03-20T12:56:01.558Z,102425.70
2019-03-20T12:57:07.699Z,102418.90
2019-03-20T12:58:13.837Z,102419.52
2019-03-20T12:59:19.728Z,102419.88
2019-03-20T13:00:28.388Z,102413.70
2019-03-20T13:01:34.438Z,102407.95
2019-03-20T13:02:40.096Z,102401.67
2019-03-20T13:03:46.648Z,102405.05
2019-03-20T13:04:52.924Z,102402.16
2019-03-20T13:06:00.139Z,102393.81
2019-03-20T13:07:07.794Z,102398.02
2019-03-20T13:08:14.719Z,102391.15
2019-03-20T13:09:20.918Z,102382.44
2019-03-20T13:10:30.866Z,102377.64
2019-03-20T13:11:38.130Z,102375.89
2019-03-20T13:12:43.778Z,102368.33
2019-03-20T13:13:49.619Z,102357.28
2019-03-20T13:14:56.581Z,102367.53
2019-03-20T13:16:04.151Z,102365.59
2019-03-20T13:17:10.506Z,102367.09
2019-03-20T13:18:18.328Z,102366.69
2019-03-20T13:19:24.129Z,102367.59
2019-03-20T13:20:29.670Z,102368.59
2019-03-20T13:21:35.620Z,102357.07
2019-03-20T13:22:41.888Z,102364.93
2019-03-20T13:23:47.606Z,102358.51
2019-03-20T13:25:14.218Z,102359.72
2019-03-20T13:26:20.010Z,102362.22
2019-03-20T13:27:25.737Z,102363.85
2019-03-20T13:28:31.813Z,102367.47
2019-03-20T13:29:37.716Z,102376.27
2019-03-20T13:31:15.026Z,102372.41
2019-03-20T13:32:21.409Z,102376.20
2019-03-20T13:33:27.430Z,102363.27
2019-03-20T13:34:34.887Z,102361.74
2019-03-20T13:35:40.889Z,102361.02
2019-03-20T13:36:47.007Z,102361.98
2019-03-20T13:37:54.269Z,102358.80
2019-03-20T13:39:01.440Z,102359.91
2019-03-20T13:40:14.597Z,102357.45
2019-03-20T13:41:21.729Z,102353.62
2019-03-20T13:42:27.790Z,102366.39
2019-03-20T13:43:34.307Z,102352.58
2019-03-20T13:44:40.038Z,102352.09
2019-03-20T13:45:46.279Z,102348.55
2019-03-20T13:46:53.279Z,102356.64
2019-03-20T13:48:00.889Z,102352.00
2019-03-20T13:49:07.074Z,102353.92
2019-03-20T13:50:15.171Z,102349.19
2019-03-20T13:51:21.109Z,102354.45
2019-03-20T13:52:28.060Z,102347.21
2019-03-20T13:53:34.117Z,102342.70
2019-03-20T13:54:39.929Z,102345.48
2019-03-20T13:55:47.429Z,102343.53
2019-03-20T13:56:53.421Z,102347.56
2019-03-20T13:57:59.276Z,102345.24
2019-03-20T13:59:05.339Z,102346.70
2019-03-20T14:00:28.282Z,102347.58
2019-03-20T14:01:34.239Z,102342.08
2019-03-20T14:02:40.249Z,102345.47
2019-03-20T14:03:45.917Z,102333.89
2019-03-20T14:04:52.110Z,102343.41
2019-03-20T14:05:58.290Z,102337.44
2019-03-20T14:07:04.349Z,102338.77
2019-03-20T14:08:10.639Z,102329.98
2019-03-20T14:09:16.480Z,102331.44
2019-03-20T14:10:30.760Z,102323.36
2019-03-20T14:11:36.757Z,102336.09
2019-03-20T14:12:42.710Z,102333.39
2019-03-20T14:13:50.210Z,102343.78
2019-03-20T14:14:56.850Z,102345.85
2019-03-20T14:16:04.318Z,102351.64
2019-03-20T14:17:10.698Z,102352.98
2019-03-20T14:18:17.279Z,102356.28
2019-03-20T14:19:25.140Z,102359.67
2019-03-20T14:20:32.508Z,102356.98
2019-03-20T14:21:38.368Z,102356.61
2019-03-20T14:22:44.408Z,102359.91
2019-03-20T14:23:50.170Z,102362.48
2019-03-20T14:24:56.348Z,102356.13
2019-03-20T14:26:03.992Z,102356.98
2019-03-20T14:27:10.111Z,102358.20
2019-03-20T14:28:18.031Z,102359.66
2019-03-20T14:29:23.950Z,102369.08
2019-03-20T14:30:32.587Z,102365.65
2019-03-20T14:31:38.750Z,102361.13
2019-03-20T14:32:45.242Z,102365.03
2019-03-20T14:33:50.791Z,102352.88
2019-03-20T14:34:57.260Z,102353.13
2019-03-20T14:36:04.128Z,102346.69
2019-03-20T14:37:10.109Z,102358.92
2019-03-20T14:38:18.383Z,102361.01
2019-03-20T14:39:24.581Z,102359.54
2019-03-20T14:40:36.424Z,102363.58
2019-03-20T14:41:43.328Z,102354.16
2019-03-20T14:42:50.478Z,102360.40
2019-03-20T14:43:56.672Z,102362.23
2019-03-20T14:45:05.762Z,102362.83
2019-03-20T14:46:11.321Z,102366.09
2019-03-20T14:47:17.549Z,102357.04
2019-03-20T14:48:24.369Z,102353.98
2019-03-20T14:49:30.468Z,102362.70
2019-03-20T14:50:36.989Z,102365.53
2019-03-20T14:51:42.743Z,102360.03
2019-03-20T14:52:48.678Z,102367.98
2019-03-20T14:53:56.102Z,102363.58
2019-03-20T14:55:02.288Z,102361.74
2019-03-20T14:56:08.221Z,102359.66
2019-03-20T14:57:14.249Z,102364.06
2019-03-20T14:58:20.202Z,102358.69
2019-03-20T14:59:25.991Z,102358.92
2019-03-20T15:00:32.548Z,102363.81
2019-03-20T15:01:38.241Z,102363.69
2019-03-20T15:02:44.481Z,102372.73
2019-03-20T15:03:50.642Z,102365.73
2019-03-20T15:04:56.708Z,102363.03
2019-03-20T15:06:03.205Z,102352.39
2019-03-20T15:07:09.462Z,102352.03
2019-03-20T15:08:15.723Z,102343.09
2019-03-20T15:09:21.867Z,102333.59
2019-03-20T15:10:29.209Z,102328.97
2019-03-20T15:11:36.722Z,102333.61
2019-03-20T15:12:42.723Z,102328.22
2019-03-20T15:13:48.583Z,102333.19
2019-03-20T15:14:55.152Z,102323.17
2019-03-20T15:16:09.327Z,102327.73
2019-03-20T15:17:15.282Z,102322.42
2019-03-20T15:18:21.464Z,102323.03
2019-03-20T15:19:28.829Z,102325.53
2019-03-20T15:20:34.871Z,102324.81
2019-03-20T15:21:40.822Z,102332.77
2019-03-20T15:22:47.634Z,102335.58
2019-03-20T15:23:53.425Z,102326.90
2019-03-20T15:24:59.743Z,102332.28
2019-03-20T15:26:06.074Z,102329.84
2019-03-20T15:27:11.942Z,102335.58
2019-03-20T15:28:17.862Z,102324.83
2019-03-20T15:29:24.109Z,102324.95
2019-03-20T15:30:30.943Z,102316.02
2019-03-20T15:31:36.770Z,102315.53
2019-03-20T15:32:43.363Z,102318.93
2019-03-20T15:33:49.523Z,102315.76
2019-03-20T15:34:55.564Z,102320.28
2019-03-20T15:36:02.285Z,102318.94
2019-03-20T15:37:08.951Z,102326.63
2019-03-20T15:38:14.785Z,102333.19
2019-03-20T15:39:21.850Z,102327.56
2019-03-20T15:40:30.824Z,102338.37
2019-03-20T15:41:36.642Z,102340.09
2019-03-20T15:42:42.705Z,102343.27
2019-03-20T15:43:48.763Z,102343.64
2019-03-20T15:44:55.271Z,102330.68
2019-03-20T15:46:01.531Z,102332.52
2019-03-20T15:47:07.643Z,102320.77
2019-03-20T15:48:16.084Z,102321.39
2019-03-20T15:49:23.111Z,102332.63
2019-03-20T15:50:29.824Z,102332.34
2019-03-20T15:51:35.903Z,102335.80
2019-03-20T15:52:42.046Z,102339.11
2019-03-20T15:53:48.403Z,102339.61
2019-03-20T15:54:54.923Z,102338.64
2019-03-20T15:56:01.243Z,102346.95
2019-03-20T15:57:07.583Z,102342.06
2019-03-20T15:58:13.864Z,102350.05
2019-03-20T15:59:19.813Z,102344.18
2019-03-20T16:00:25.924Z,102345.86
2019-03-20T16:01:32.105Z,102346.10
2019-03-20T16:02:38.092Z,102345.00
2019-03-20T16:03:48.784Z,102343.29
2019-03-20T16:04:54.923Z,102343.04
2019-03-20T16:06:01.244Z,102347.93
2019-03-20T16:07:07.846Z,102351.97
2019-03-20T16:08:13.964Z,102352.95
2019-03-20T16:09:20.124Z,102354.29
2019-03-20T16:10:26.391Z,102363.34
2019-03-20T16:11:32.543Z,102363.45
2019-03-20T16:12:38.704Z,102362.97
2019-03-20T16:13:44.751Z,102362.23
2019-03-20T16:14:51.065Z,102368.95
2019-03-20T16:15:57.271Z,102371.28
2019-03-20T16:17:03.431Z,102367.89
2019-03-20T16:18:09.629Z,102377.30
2019-03-20T16:19:16.132Z,102365.81
2019-03-20T16:20:22.659Z,102379.75
2019-03-20T16:21:28.690Z,102370.22
2019-03-20T16:22:34.970Z,102377.55
2019-03-20T16:23:40.927Z,102374.49
2019-03-20T16:24:47.106Z,102382.80
2019-03-20T16:25:53.110Z,102372.53
2019-03-20T16:26:59.496Z,102374.36
2019-03-20T16:28:05.806Z,102368.01
2019-03-20T16:29:11.938Z,102370.20
2019-03-20T16:30:26.882Z,102358.59
2019-03-20T16:31:32.742Z,102356.27
2019-03-20T16:32:38.720Z,102360.06
2019-03-20T16:33:45.080Z,102354.56
2019-03-20T16:34:51.108Z,102360.31
2019-03-20T16:35:57.420Z,102362.14
2019-03-20T16:37:04.357Z,102365.20
2019-03-20T16:38:10.220Z,102359.66
2019-03-20T16:39:16.810Z,102358.12
2019-03-20T16:40:29.407Z,102362.59
2019-03-20T16:41:35.580Z,102357.38
2019-03-20T16:42:42.079Z,102358.19
2019-03-20T16:43:48.393Z,102353.88
2019-03-20T16:44:54.828Z,102358.00
2019-03-20T16:46:01.747Z,102354.89
2019-03-20T16:47:08.828Z,102361.78
2019-03-20T16:48:15.020Z,102367.66
2019-03-20T16:49:21.904Z,102361.97
2019-03-20T16:50:33.493Z,102362.52
2019-03-20T16:51:39.760Z,102360.24
2019-03-20T16:52:45.262Z,102366.30
2019-03-20T16:53:51.660Z,102368.53
2019-03-20T16:55:12.958Z,102368.91
2019-03-20T16:56:19.001Z,102364.05
2019-03-20T16:57:25.311Z,102368.91
2019-03-20T16:58:31.053Z,102366.74
2019-03-20T16:59:37.553Z,102370.30
2019-03-20T17:00:43.554Z,102363.31
2019-03-20T17:01:49.520Z,102367.48
2019-03-20T17:02:55.728Z,102366.13
2019-03-20T17:04:01.858Z,102366.99
2019-03-20T17:05:08.590Z,102363.69
2019-03-20T17:06:14.771Z,102370.53
2019-03-20T17:07:20.831Z,102363.31
2019-03-20T17:08:27.800Z,102359.65
2019-03-20T17:09:33.912Z,102361.37
2019-03-20T17:10:44.791Z,102355.37
2019-03-20T17:11:51.182Z,102356.36
2019-03-20T17:12:57.551Z,102355.02
2019-03-20T17:14:05.010Z,102354.52
2019-03-20T17:15:21.375Z,102358.44
2019-03-20T17:16:29.036Z,102356.97
2019-03-20T17:17:42.901Z,102358.56
2019-03-20T17:18:49.538Z,102357.22
2019-03-20T17:19:56.130Z,102358.95
2019-03-20T17:21:03.652Z,102352.93
2019-03-20T17:22:09.465Z,102362.00
2019-03-20T17:23:15.644Z,102360.20
2019-03-20T17:24:23.614Z,102360.02
2019-03-20T17:25:29.501Z,102349.22
2019-03-20T17:26:49.279Z,102348.85
2019-03-20T17:28:04.042Z,102349.22
2019-03-20T17:29:11.260Z,102342.59
2019-03-20T17:30:33.001Z,102342.59
2019-03-20T17:31:39.303Z,102338.89
2019-03-20T17:32:45.401Z,102340.60
2019-03-20T17:33:51.732Z,102341.06
2019-03-20T17:34:58.942Z,102340.21
2019-03-20T17:36:04.812Z,102335.64
2019-03-20T17:37:11.532Z,102329.69
2019-03-20T17:38:17.395Z,102333.60
2019-03-20T17:39:23.718Z,102343.98
2019-03-20T17:40:30.740Z,102341.53
2019-03-20T17:41:38.193Z,102344.20
2019-03-20T17:42:44.349Z,102344.34
2019-03-20T17:43:52.812Z,102338.02
2019-03-20T17:44:59.110Z,102349.55
2019-03-20T17:46:05.423Z,102344.56
2019-03-20T17:47:11.662Z,102346.77
2019-03-20T17:48:18.075Z,102346.77
2019-03-20T17:49:24.603Z,102343.13
2019-03-20T17:50:32.962Z,102340.77
2019-03-20T17:51:39.157Z,102347.67
2019-03-20T17:52:45.296Z,102344.50
2019-03-20T17:53:51.790Z,102341.83
2019-03-20T17:54:57.914Z,102349.31
2019-03-20T17:56:04.076Z,102347.63
2019-03-20T17:57:10.043Z,102351.58
2019-03-20T17:58:15.802Z,102344.48
2019-03-20T17:59:22.103Z,102343.69
2019-03-20T18:00:44.548Z,102341.61
2019-03-20T18:01:50.451Z,102339.28
2019-03-20T18:02:56.611Z,102338.33
2019-03-20T18:04:03.134Z,102344.00
2019-03-20T18:05:11.013Z,102344.38
2019-03-20T18:06:17.398Z,102343.64
2019-03-20T18:07:23.935Z,102350.48
2019-03-20T18:08:31.044Z,102347.06
2019-03-20T18:09:37.423Z,102348.53
2019-03-20T18:10:43.825Z,102359.78
2019-03-20T18:11:50.713Z,102354.41
2019-03-20T18:12:56.878Z,102361.87
2019-03-20T18:14:03.094Z,102355.63
2019-03-20T18:15:17.908Z,102356.13
2019-03-20T18:16:24.534Z,102355.02
2019-03-20T18:17:31.217Z,102351.97
2019-03-20T18:18:37.863Z,102352.95
2019-03-20T18:19:44.000Z,102343.53
2019-03-20T18:20:50.454Z,102341.82
2019-03-20T18:21:56.826Z,102344.76
2019-03-20T18:23:03.184Z,102344.02
2019-03-20T18:24:09.250Z,102341.34
2019-03-20T18:25:15.972Z,102339.02
2019-03-20T18:26:21.945Z,102345.03
2019-03-20T18:27:28.201Z,102337.95
2019-03-20T18:28:34.354Z,102337.30
2019-03-20T18:29:40.589Z,102339.78
2019-03-20T18:30:46.929Z,102344.30
2019-03-20T18:31:53.450Z,102337.70
2019-03-20T18:33:00.093Z,102340.02
2019-03-20T18:34:11.871Z,102335.13
2019-03-20T18:35:18.969Z,102336.72
2019-03-20T18:36:27.429Z,102339.78
2019-03-20T18:37:34.804Z,102338.80
2019-03-20T18:38:42.900Z,102330.73
2019-03-20T18:39:52.841Z,102331.84
2019-03-20T18:40:59.604Z,102334.03
2019-03-20T18:42:06.519Z,102336.72
2019-03-20T18:43:15.138Z,102344.79
2019-03-20T18:44:22.162Z,102347.60
2019-03-20T18:45:29.811Z,102340.39
2019-03-20T18:46:38.605Z,102341.25
2019-03-20T18:47:46.152Z,102333.30
2019-03-20T18:48:53.157Z,102332.94
2019-03-20T18:49:59.853Z,102331.34
2019-03-20T18:51:07.228Z,102335.02
2019-03-20T18:52:13.984Z,102333.30
2019-03-20T18:53:20.172Z,102333.30
2019-03-20T18:54:26.319Z,102339.66
2019-03-20T18:55:32.553Z,102332.08
2019-03-20T18:56:38.774Z,102339.66
2019-03-20T18:57:45.138Z,102340.14
2019-03-20T18:58:51.528Z,102339.78
2019-03-20T18:59:58.388Z,102345.28
2019-03-20T19:01:04.596Z,102344.42
2019-03-20T19:02:12.828Z,102347.59
2019-03-20T19:03:32.174Z,102345.77
2019-03-20T19:06:28.200Z,102347.23
2019-03-20T19:08:44.348Z,102347.84
2019-03-20T19:09:51.838Z,102349.55
2019-03-20T19:10:58.771Z,102341.13
2019-03-20T19:12:08.795Z,102346.02
2019-03-20T19:13:15.191Z,102347.97
2019-03-20T19:14:21.568Z,102353.22
2019-03-20T19:15:29.527Z,102357.98
2019-03-20T19:16:36.980Z,102357.74
2019-03-20T19:17:45.756Z,102357.25
2019-03-20T19:18:53.736Z,102360.92
2019-03-20T19:20:01.220Z,102357.83
2019-03-20T19:21:08.878Z,102362.27
2019-03-20T19:22:16.849Z,102366.30
2019-03-20T19:23:23.412Z,102368.86
2019-03-20T19:24:32.216Z,102363.98
2019-03-20T19:25:38.940Z,102366.67
2019-03-20T19:26:45.017Z,102368.26
2019-03-20T19:27:51.124Z,102368.02
2019-03-20T19:28:58.103Z,102377.66
2019-03-20T19:30:05.971Z,102374.12
2019-03-20T19:31:14.845Z,102375.09
2019-03-20T19:32:23.676Z,102378.15
2019-03-20T19:33:32.598Z,102380.96
2019-03-20T19:34:39.257Z,102380.47
2019-03-20T19:35:47.259Z,102382.67
2019-03-20T19:36:54.371Z,102381.81
2019-03-20T19:38:03.067Z,102371.06
2019-03-20T19:39:10.620Z,102376.44
2019-03-20T19:40:27.446Z,102379.98
2019-03-20T19:41:34.211Z,102376.44
2019-03-20T19:42:41.253Z,102372.04
2019-03-20T19:43:48.300Z,102373.02
2019-03-20T19:44:55.336Z,102372.04
2019-03-20T19:46:04.214Z,102364.06
2019-03-20T19:47:10.029Z,102372.04
2019-03-20T19:48:17.350Z,102368.98
2019-03-20T19:49:27.238Z,102374.81
2019-03-20T19:50:34.483Z,102377.91
2019-03-20T19:51:40.614Z,102377.50
2019-03-20T19:52:48.379Z,102374.45
2019-03-20T19:53:54.482Z,102383.77
2019-03-20T19:55:00.599Z,102380.11
2019-03-20T19:56:08.100Z,102376.28
2019-03-20T19:57:14.005Z,102377.99
2019-03-20T19:58:19.475Z,102373.59
2019-03-20T19:59:25.763Z,102371.39
2019-03-20T20:00:31.947Z,102366.02
2019-03-20T20:01:38.195Z,102373.10
2019-03-20T20:02:44.350Z,102375.91
2019-03-20T20:03:50.518Z,102379.34
2019-03-20T20:04:56.738Z,102371.06
2019-03-20T20:06:03.462Z,102374.73
2019-03-20T20:07:09.587Z,102374.23
2019-03-20T20:08:15.987Z,102377.05
2019-03-20T20:09:29.090Z,102382.02
2019-03-20T20:10:35.428Z,102391.92
2019-03-20T20:11:43.032Z,102389.84
2019-03-20T20:12:56.387Z,102388.02
2019-03-20T20:14:02.347Z,102384.59
2019-03-20T20:15:15.676Z,102387.88
2019-03-20T20:16:29.003Z,102381.77
2019-03-20T20:17:36.072Z,102382.75
2019-03-20T20:18:42.572Z,102378.72
2019-03-20T20:20:06.315Z,102378.72
2019-03-20T20:21:14.363Z,102381.04
2019-03-20T20:22:22.328Z,102379.21
2019-03-20T20:23:28.959Z,102377.26
2019-03-20T20:24:34.588Z,102372.37
2019-03-20T20:25:40.316Z,102375.91
2019-03-20T20:26:45.781Z,102377.14
2019-03-20T20:27:53.478Z,102376.28
2019-03-20T20:29:08.963Z,102373.22
2019-03-20T20:30:25.083Z,102375.91
2019-03-20T20:31:33.207Z,102369.68
2019-03-20T20:32:42.579Z,102371.52
2019-03-20T20:33:51.168Z,102378.23
2019-03-20T20:34:57.000Z,102374.69
2019-03-20T20:36:03.462Z,102374.69
2019-03-20T20:37:13.107Z,102369.80
2019-03-20T20:38:17.600Z,102374.32
2019-03-20T20:39:36.511Z,102374.81
2019-03-20T20:40:43.513Z,102375.66
2019-03-20T20:41:50.248Z,102379.33
2019-03-20T20:42:59.280Z,102374.93
2019-03-20T20:44:06.804Z,102379.81
2019-03-20T20:45:16.829Z,102375.41
2019-03-20T20:46:23.781Z,102379.08
2019-03-20T20:48:08.571Z,102383.00
2019-03-20T20:49:15.400Z,102384.83
2019-03-20T20:50:22.557Z,102385.44
2019-03-20T20:51:28.705Z,102382.51
2019-03-20T20:52:35.871Z,102381.65
2019-03-20T20:53:42.041Z,102387.03
2019-03-20T20:54:47.897Z,102375.41
2019-03-20T20:55:54.004Z,102376.39
2019-03-20T20:57:01.152Z,102374.44
2019-03-20T20:58:07.251Z,102366.50
2019-03-20T20:59:12.856Z,102368.33
2019-03-20T21:00:22.506Z,102369.55
2019-03-20T21:01:30.207Z,102372.13
2019-03-20T21:02:37.187Z,102377.75
2019-03-20T21:03:43.223Z,102376.28
2019-03-20T21:04:49.388Z,102378.39
2019-03-20T21:05:56.367Z,102382.80
2019-03-20T21:07:04.822Z,102380.47
2019-03-20T21:08:11.041Z,102377.78
2019-03-20T21:09:21.138Z,102379.62
2019-03-20T21:10:27.341Z,102375.47
2019-03-20T21:11:33.854Z,102375.71
2019-03-20T21:12:42.536Z,102379.98
2019-03-20T21:13:49.246Z,102382.44
2019-03-20T21:14:55.923Z,102378.64
2019-03-20T21:16:02.112Z,102387.69
2019-03-20T21:17:11.950Z,102387.32
2019-03-20T21:18:50.044Z,102390.38
2019-03-20T21:19:57.784Z,102380.36
2019-03-20T21:21:07.513Z,102372.17
2019-03-20T21:22:36.289Z,102381.09
2019-03-20T21:24:19.033Z,102377.55